Pagrindinis puslapis
METAR-TAF:

METAR-TAF

Oro uostai :

Četumalis, Meksika

platuma: 18-29N, ilguma: 088-18W, Aukštis: 9 m

Dabartinis oras

Ataskaita buvo paskelbta 2 valandos ir 41 minutes, ne 23:42 UTC
Vėjas 7 kt iš Rytų/Pietryčių
Temperatūra 31°C
Drėgmė 66%
Slėgis 1010 hPa
Matomumas: 11.3 km
Apsiniaukę ne aukštis 10000 ft

METAR: MMCM 192342Z 11007KT 7SM OVC100 31/24 A2982 RMK SLP099 5//// 917 6//// 8/07/ BINOVC HZY

Laikas: 21:23 (02:23 UTC)

Prognozė

Ataskaita buvo paskelbta 8 valandos ir 59 minutes, ne 17:24 UTC
Prognozė galioja nuo 19 metu 18 UTC su 20 metu 18 UTC
Vėjas 10 kt iš Rytų/Pietryčių
Matomumas: 10 km
Išsisklaidę debesys ne aukštis 2000 ft
Tapsmas
nuo 19 metu 20 UTC su 19 metu 21 UTC
Vėjas 15 kt iš Rytų/Pietryčių
Nuo 20 metu 0200 UTC
Vėjas 6 kt iš Rytų
Matomumas: 10 km
Išsisklaidę debesys ne aukštis 2000 ft
Tapsmas
nuo 20 metu 17 UTC su 20 metu 18 UTC
Vėjas 15 kt iš Rytų

TAF: MMCM 191724Z 1918/2018 12010KT P6SM SCT020 BECMG 1920/1921 12015KT FM200200 10006KT P6SM SCT020 BECMG 2017/2018 10015KT

Orai ataskaitas ir orų prognozės (METAR, TAF).

turimą stotys yra geltonos ir raudonos taškus žemėlapyje.

Perkelti pele per norėdami pamatyti stoties vardą.

Tada spustelėkite, norėdami matyti oro stebėjimo ir prognozės.

Norėdami pakeisti žemėlapį: spustelėkite ant žalios mygtukų su juodo kryžiaus žemyn,; žalią mygtuką su brūkšneliu, jei norite nutolinti; arba žalių rodyklių gretimoms žemėlapius.


METAR-TAF: